| time (UTC) | temp F | wind direction | speed knots | gust knots | rain 1hr in | rain 24hr in | rain mn in | humidity % | barometer mb |
| 20260510054540 | 44 | 360 | 0.0 | 2.6 | 0.00 | 0.52 | 0.00 | 96 | 1009.6 |
| 20260510053033 | 44 | 150 | 0.0 | 0.0 | 0.00 | 0.52 | 0.00 | 95 | 1009.2 |
| 20260510051518 | 44 | 150 | 0.0 | 0.0 | 0.00 | 0.52 | 0.00 | 95 | 1008.9 |
| 20260510050013 | 44 | 150 | 0.0 | 0.0 | 0.00 | 0.52 | 0.00 | 95 | 1009.0 |
| 20260510044556 | 45 | 150 | 0.0 | 0.0 | 0.00 | 0.52 | 0.00 | 94 | 1008.9 |
| 20260510043059 | 45 | 150 | 0.0 | 0.0 | 0.00 | 0.52 | 0.00 | 94 | 1009.0 |
| 20260510041544 | 46 | 150 | 0.0 | 0.0 | 0.00 | 0.52 | 0.00 | 94 | 1008.8 |
| 20260510040031 | 47 | 150 | 0.0 | 0.0 | 0.00 | 0.52 | 0.52 | 95 | 1008.6 |
| 20260510034513 | 47 | 150 | 0.0 | 0.0 | 0.00 | 0.52 | 0.52 | 95 | 1008.6 |
| 20260510033010 | 47 | 150 | 0.0 | 0.0 | 0.00 | 0.52 | 0.52 | 94 | 1008.6 |
| 20260510031600 | 47 | 255 | 0.0 | 0.0 | 0.00 | 0.52 | 0.52 | 94 | 1008.6 |
| 20260510030058 | 47 | 256 | 0.0 | 0.0 | 0.00 | 0.52 | 0.52 | 92 | 1008.6 |
| 20260510024600 | 48 | 256 | 0.0 | 0.0 | 0.00 | 0.52 | 0.52 | 92 | 1008.5 |
| 20260510023053 | 49 | 255 | 0.0 | 0.0 | 0.00 | 0.52 | 0.52 | 91 | 1008.3 |
| 20260510021553 | 50 | 255 | 0.0 | 0.0 | 0.00 | 0.52 | 0.52 | 90 | 1008.4 |
| 20260510020055 | 51 | 252 | 0.0 | 3.5 | 0.00 | 0.52 | 0.52 | 89 | 1008.4 |
| 20260510014551 | 50 | 162 | 0.0 | 3.5 | 0.00 | 0.52 | 0.52 | 89 | 1008.2 |
| 20260510013103 | 51 | 360 | 0.0 | 2.6 | 0.00 | 0.52 | 0.52 | 88 | 1008.2 |
| 20260510011537 | 51 | 360 | 0.0 | 0.0 | 0.00 | 0.52 | 0.52 | 89 | 1008.2 |
| 20260510010045 | 52 | 360 | 0.0 | 0.0 | 0.00 | 0.52 | 0.52 | 88 | 1008.3 |
| 20260510004514 | 51 | 360 | 0.0 | 2.6 | 0.00 | 0.52 | 0.52 | 88 | 1008.0 |
| 20260510003015 | 51 | 253 | 0.0 | 2.6 | 0.00 | 0.52 | 0.52 | 89 | 1007.7 |
| 20260510001556 | 51 | 257 | 0.0 | 2.6 | 0.00 | 0.52 | 0.52 | 89 | 1007.7 |
| 20260510000115 | 51 | 237 | 0.0 | 0.0 | 0.00 | 0.52 | 0.52 | 89 | 1007.6 |
| 20260509234557 | 52 | 223 | 0.0 | 0.0 | 0.00 | 0.52 | 0.52 | 87 | 1007.4 |
| 20260509233039 | 52 | 360 | 0.0 | 0.0 | 0.00 | 0.52 | 0.52 | 85 | 1007.3 |
| 20260509231529 | 53 | 360 | 0.0 | 0.9 | 0.00 | 0.52 | 0.52 | 84 | 1007.1 |
| 20260509230021 | 53 | 360 | 0.0 | 0.0 | 0.00 | 0.52 | 0.52 | 83 | 1006.9 |
| 20260509224502 | 53 | 360 | 0.0 | 2.6 | 0.00 | 0.52 | 0.52 | 82 | 1006.9 |
| 20260509223003 | 54 | 258 | 0.9 | 3.5 | 0.00 | 0.52 | 0.52 | 80 | 1006.8 |
| 20260509221602 | 54 | 240 | 0.9 | 4.3 | 0.00 | 0.52 | 0.52 | 80 | 1007.0 |
| 20260509220045 | 54 | 360 | 1.7 | 4.3 | 0.00 | 0.52 | 0.52 | 80 | 1007.2 |
| 20260509214520 | 53 | 360 | 0.0 | 3.5 | 0.00 | 0.52 | 0.52 | 84 | 1007.4 |
| 20260509213018 | 52 | 209 | 1.7 | 3.5 | 0.00 | 0.52 | 0.52 | 86 | 1007.5 |
| 20260509211503 | 52 | 360 | 1.7 | 4.3 | 0.00 | 0.52 | 0.52 | 86 | 1007.5 |
| 20260509210104 | 52 | 209 | 0.0 | 4.3 | 0.01 | 0.52 | 0.52 | 88 | 1007.5 |
| 20260509204600 | 52 | 360 | 0.0 | 4.3 | 0.01 | 0.52 | 0.52 | 87 | 1007.7 |
| 20260509203055 | 52 | 360 | 1.7 | 7.0 | 0.01 | 0.52 | 0.52 | 86 | 1007.9 |
| 20260509201552 | 51 | 207 | 1.7 | 5.2 | 0.01 | 0.52 | 0.52 | 86 | 1008.1 |
| 20260509200058 | 52 | 267 | 0.9 | 5.2 | 0.00 | 0.51 | 0.51 | 85 | 1008.1 |
| 20260509194548 | 52 | 242 | 1.7 | 7.0 | 0.00 | 0.51 | 0.51 | 86 | 1008.2 |
| 20260509193059 | 51 | 360 | 0.0 | 4.3 | 0.00 | 0.51 | 0.51 | 87 | 1008.3 |
| 20260509191528 | 51 | 257 | 0.9 | 7.0 | 0.00 | 0.51 | 0.51 | 87 | 1008.4 |
| 20260509190040 | 51 | 204 | 0.0 | 4.3 | 0.00 | 0.51 | 0.51 | 87 | 1008.5 |
| 20260509184526 | 51 | 202 | 0.9 | 4.3 | 0.01 | 0.51 | 0.51 | 87 | 1008.6 |
| 20260509183020 | 51 | 161 | 0.9 | 4.3 | 0.01 | 0.51 | 0.51 | 87 | 1008.5 |
| 20260509181513 | 51 | 360 | 0.0 | 5.2 | 0.02 | 0.51 | 0.51 | 87 | 1008.6 |
| 20260509180013 | 51 | 360 | 1.7 | 7.8 | 0.02 | 0.52 | 0.51 | 87 | 1008.5 |
| 20260509174511 | 50 | 153 | 0.0 | 3.5 | 0.02 | 0.51 | 0.50 | 89 | 1008.5 |
| 20260509173013 | 50 | 215 | 0.0 | 3.5 | 0.03 | 0.51 | 0.50 | 90 | 1008.5 |
| 20260509171509 | 51 | 360 | 0.0 | 0.0 | 0.02 | 0.50 | 0.49 | 92 | 1008.6 |
| 20260509170012 | 50 | 360 | 0.0 | 0.0 | 0.03 | 0.50 | 0.49 | 93 | 1008.5 |
| 20260509164503 | 50 | 360 | 0.0 | 0.0 | 0.03 | 0.49 | 0.48 | 93 | 1008.7 |
| 20260509163050 | 49 | 360 | 0.0 | 0.0 | 0.02 | 0.48 | 0.47 | 94 | 1009.1 |
| 20260509161539 | 49 | 360 | 0.0 | 0.0 | 0.03 | 0.48 | 0.47 | 95 | 1009.2 |
| 20260509160020 | 48 | 360 | 0.0 | 0.0 | 0.02 | 0.47 | 0.46 | 96 | 1009.4 |
| 20260509154514 | 47 | 360 | 0.0 | 0.0 | 0.01 | 0.46 | 0.45 | 96 | 1009.7 |
| 20260509153103 | 47 | 360 | 0.0 | 0.0 | 0.02 | 0.46 | 0.45 | 96 | 1009.9 |
| 20260509151606 | 46 | 360 | 0.0 | 0.0 | 0.02 | 0.45 | 0.44 | 96 | 1010.0 |
| 20260509150055 | 45 | 360 | 0.0 | 0.0 | 0.02 | 0.45 | 0.44 | 96 | 1010.0 |
| 20260509144554 | 45 | 360 | 0.0 | 0.0 | 0.03 | 0.45 | 0.44 | 96 | 1010.1 |
| 20260509143049 | 44 | 360 | 0.0 | 0.0 | 0.03 | 0.44 | 0.43 | 96 | 1010.2 |
| 20260509141551 | 43 | 360 | 0.0 | 0.0 | 0.03 | 0.43 | 0.42 | 96 | 1010.2 |
| 20260509140046 | 42 | 360 | 0.0 | 0.0 | 0.03 | 0.43 | 0.42 | 96 | 1010.3 |
| 20260509134553 | 42 | 360 | 0.0 | 0.0 | 0.02 | 0.42 | 0.41 | 96 | 1010.2 |
| 20260509133032 | 42 | 360 | 0.0 | 0.0 | 0.01 | 0.41 | 0.40 | 96 | 1010.1 |
| 20260509131536 | 41 | 360 | 0.0 | 0.0 | 0.00 | 0.40 | 0.39 | 96 | 1010.2 |
| 20260509130040 | 41 | 360 | 0.0 | 0.0 | 0.01 | 0.40 | 0.39 | 96 | 1010.2 |
| 20260509124528 | 41 | 360 | 0.0 | 0.0 | 0.01 | 0.40 | 0.39 | 95 | 1010.3 |
| 20260509123026 | 40 | 360 | 0.0 | 0.0 | 0.02 | 0.40 | 0.39 | 96 | 1010.4 |
| 20260509121521 | 40 | 360 | 0.0 | 0.0 | 0.02 | 0.40 | 0.39 | 95 | 1010.5 |
| 20260509120016 | 40 | 360 | 0.0 | 0.0 | 0.01 | 0.39 | 0.38 | 95 | 1010.5 |
| 20260509114514 | 40 | 360 | 0.0 | 0.0 | 0.03 | 0.39 | 0.38 | 96 | 1010.6 |
| 20260509113101 | 39 | 360 | 0.0 | 0.0 | 0.03 | 0.38 | 0.37 | 95 | 1010.6 |
| 20260509111553 | 38 | 360 | 0.0 | 0.0 | 0.05 | 0.38 | 0.37 | 95 | 1010.8 |
| 20260509110037 | 38 | 360 | 0.0 | 0.0 | 0.08 | 0.38 | 0.37 | 95 | 1010.6 |
| 20260509104535 | 38 | 360 | 0.0 | 0.0 | 0.08 | 0.36 | 0.35 | 95 | 1010.8 |
| 20260509103006 | 38 | 360 | 0.0 | 0.0 | 0.10 | 0.35 | 0.34 | 95 | 1010.8 |
| 20260509101508 | 37 | 360 | 0.0 | 0.0 | 0.09 | 0.32 | 0.31 | 95 | 1010.7 |
| 20260509100046 | 37 | 360 | 0.0 | 0.0 | 0.10 | 0.30 | 0.28 | 95 | 1010.7 |
| 20260509094547 | 37 | 360 | 0.0 | 0.0 | 0.08 | 0.28 | 0.27 | 94 | 1010.7 |
| 20260509093034 | 37 | 360 | 0.0 | 0.0 | 0.06 | 0.25 | 0.24 | 94 | 1010.8 |
| 20260509091532 | 37 | 360 | 0.0 | 0.0 | 0.05 | 0.23 | 0.22 | 94 | 1010.9 |
| 20260509090035 | 37 | 360 | 0.0 | 0.0 | 0.06 | 0.20 | 0.19 | 94 | 1010.9 |
| 20260509084536 | 36 | 360 | 0.0 | 0.0 | 0.09 | 0.20 | 0.19 | 93 | 1010.9 |
| 20260509083029 | 36 | 360 | 0.0 | 0.0 | 0.11 | 0.19 | 0.18 | 93 | 1011.1 |
| 20260509081539 | 36 | 360 | 0.0 | 0.0 | 0.12 | 0.18 | 0.17 | 92 | 1011.2 |
| 20260509080027 | 36 | 360 | 0.0 | 0.0 | 0.11 | 0.13 | 0.12 | 92 | 1011.4 |
| 20260509074527 | 36 | 360 | 0.0 | 0.9 | 0.10 | 0.11 | 0.10 | 91 | 1011.4 |
| 20260509073009 | 37 | 360 | 0.0 | 0.9 | 0.07 | 0.08 | 0.07 | 90 | 1011.6 |
| 20260509071508 | 37 | 360 | 0.0 | 0.9 | 0.05 | 0.06 | 0.05 | 89 | 1011.4 |
| 20260509070057 | 37 | 360 | 0.0 | 0.9 | 0.01 | 0.02 | 0.01 | 87 | 1011.2 |
| 20260509064549 | 36 | 360 | 0.0 | 0.0 | 0.00 | 0.01 | 0.00 | 87 | 1011.2 |
| 20260509063036 | 36 | 360 | 0.0 | 0.0 | 0.00 | 0.01 | 0.00 | 87 | 1011.2 |
| 20260509061534 | 36 | 360 | 0.0 | 2.6 | 0.00 | 0.01 | 0.00 | 87 | 1011.4 |
| 20260509060032 | 36 | 19 | 0.9 | 1.7 | 0.00 | 0.01 | 0.00 | 86 | 1011.5 |